Lodgepole, SD

11:28 PM MDT on July 28, 2014 (GMT -0600)
Buffalo (K2WX) Elev 3002 ft | 45.60 °N, 103.55 °W | Change Station

Current weather conditions updated 32 minutes ago

Partly Cloudy
Partly Cloudy
63 °F
Feels Like 63 °F
N
10
Wind Variable Wind from East
Gusts 8 mph

Tomorrow is forecast to be nearly the same temperature as today.

Today
High -- | Low -- °F
--% Chance of Precip.
Yesterday
High -- | Low -- °F
Precip. -- in
5:29 AM 8:24 PM
Waxing Crescent, 5% visible
Pressure 30.16 in
Visibility -9999.0 miles
Clouds
Dew Point 52 °F
Humidity 67%
Rainfall 0.00 in
Snow Depth Not available.
UV Not available.
Pollen 6.80 out of 12
Air Quality Not available.
Flu Activity Not available.
METAR K2WX 290456Z AUTO 09009KT 17/11 A3020 RMK AO1 SLP211 T01720111

More Conditions Fewer Conditions

Pressure 30.16 in
Visibility -9999.0 miles
Clouds
Dew Point 52 °F
Humidity 67%
Rainfall 0.00 in
Snow Depth Not available.
UV Not available.
Pollen 6.80 out of 12
Air Quality Not available.
Flu Activity Not available.
METAR K2WX 290456Z AUTO 09009KT 17/11 A3020 RMK AO1 SLP211 T01720111

More Conditions Fewer Conditions

10-Day Weather Forecast

Almanac

Astronomy

Jul. 28, 2014 Rise Set
Actual Time 5:29 AM MDT 8:24 PM MDT
Civil Twilight 4:54 AM MDT 8:59 PM MDT
Nautical Twilight 4:09 AM MDT 9:44 PM MDT
Astronomical Twilight 3:16 AM MDT 10:37 PM MDT
Moon 7:21 AM MDT (7/28) 8:57 PM MDT (7/28)
Length of Visible Light 16h 05m
Length of Day
14h 55m
Tomorrow will be 2m 22s shorter.
Waxing Crescent, 5% of the Moon is Illuminated
Jul 29
Waxing Crescent
Aug 3
First Quarter
Aug 10
Full
Aug 17
Last Quarter
Aug 25
New

Yesterday's Extremes

State Highs State Lows

Community

WunderPhotos

Upload Photos

1,738,637 photos uploaded!

Nearby

Snow Depth

Station Depth Elevation
Blind Park 0 in 6890 ft

Earthquake Activity

City Distance Mag. Time & Date
No recent earthquake activity has been reported nearby.
Minimum magnitude displayed is 2.5.

Coastal Water Temperatures

Place Temperature
No Stations Reporting

Nearby Weather Stations

There are no personal weather stations in this area.